createdAt,value
2022-08-07T00:01:44.664Z,85.13
2022-08-07T00:04:00.365Z,85.60
2022-08-07T00:06:33.487Z,85.33
2022-08-07T00:09:16.386Z,85.67
2022-08-07T00:11:54.491Z,85.38
2022-08-07T00:14:25.423Z,85.28
2022-08-07T00:16:52.392Z,84.97
2022-08-07T00:19:21.615Z,86.86
2022-08-07T00:21:57.224Z,85.58
2022-08-07T00:24:28.841Z,84.63
2022-08-07T00:27:06.247Z,84.54
2022-08-07T00:29:33.357Z,86.17
2022-08-07T00:32:03.706Z,85.84
2022-08-07T00:34:32.624Z,85.40
2022-08-07T00:37:01.993Z,85.12
2022-08-07T00:39:28.710Z,85.16
2022-08-07T00:42:02.008Z,84.97
2022-08-07T00:44:33.337Z,85.99
2022-08-07T00:47:03.637Z,85.52
2022-08-07T00:50:21.487Z,85.38
2022-08-07T00:52:20.071Z,86.67
2022-08-07T00:54:47.074Z,86.15
2022-08-07T00:57:22.373Z,87.27
2022-08-07T00:59:49.241Z,87.70
2022-08-07T01:02:29.185Z,87.92
2022-08-07T01:04:58.631Z,90.16
2022-08-07T01:07:27.623Z,88.47
2022-08-07T01:10:05.692Z,87.01
2022-08-07T01:12:36.490Z,85.86
2022-08-07T01:15:04.626Z,86.19
2022-08-07T01:17:33.091Z,88.19
2022-08-07T01:20:09.268Z,89.26
2022-08-07T01:22:54.047Z,90.10
2022-08-07T01:25:53.807Z,90.26
2022-08-07T01:28:14.393Z,90.57
2022-08-07T01:30:42.141Z,90.38
2022-08-07T01:33:08.760Z,90.43
2022-08-07T01:35:53.709Z,90.14
2022-08-07T01:38:25.249Z,90.09
2022-08-07T01:40:55.883Z,90.04
2022-08-07T01:43:23.127Z,89.94
2022-08-07T01:45:54.544Z,89.98
2022-08-07T01:48:30.177Z,90.34
2022-08-07T01:51:24.273Z,89.99
2022-08-07T01:54:12.172Z,89.82
2022-08-07T01:56:58.620Z,90.10
2022-08-07T01:59:36.687Z,88.84
2022-08-07T02:02:13.096Z,90.43
2022-08-07T02:05:04.847Z,90.23
2022-08-07T02:07:44.794Z,90.54
2022-08-07T02:10:19.160Z,92.05
2022-08-07T02:12:49.221Z,90.49
2022-08-07T02:15:23.326Z,90.77
2022-08-07T02:17:53.683Z,90.71
2022-08-07T02:20:23.905Z,90.36
2022-08-07T02:22:57.520Z,90.90
2022-08-07T02:26:10.505Z,91.39
2022-08-07T02:28:25.353Z,91.52
2022-08-07T02:30:53.971Z,91.35
2022-08-07T02:33:20.813Z,91.34
2022-08-07T02:36:29.121Z,90.69
2022-08-07T02:38:39.272Z,90.73
2022-08-07T02:41:21.476Z,90.41
2022-08-07T02:43:49.178Z,90.20
2022-08-07T02:46:16.620Z,90.49
2022-08-07T02:48:54.754Z,90.77
2022-08-07T02:51:41.825Z,91.65
2022-08-07T02:54:10.056Z,92.87
2022-08-07T02:56:40.192Z,92.74
2022-08-07T02:59:10.779Z,92.20
2022-08-07T03:01:40.062Z,90.82
2022-08-07T03:04:12.428Z,90.86
2022-08-07T03:06:41.240Z,91.75
2022-08-07T03:09:11.105Z,93.58
2022-08-07T03:11:52.468Z,92.40
2022-08-07T03:14:25.315Z,93.12
2022-08-07T03:16:52.376Z,92.93
2022-08-07T03:19:19.596Z,93.41
2022-08-07T03:21:50.920Z,93.31
2022-08-07T03:24:27.063Z,93.63
2022-08-07T03:26:58.923Z,94.94
2022-08-07T03:29:29.673Z,95.46
2022-08-07T03:31:56.547Z,95.22
2022-08-07T03:34:27.169Z,96.07
2022-08-07T03:36:54.959Z,96.86
2022-08-07T03:39:42.171Z,96.10
2022-08-07T03:42:12.352Z,95.21
2022-08-07T03:44:39.011Z,95.06
2022-08-07T03:47:11.454Z,94.09
2022-08-07T03:50:08.146Z,94.43
2022-08-07T03:52:57.253Z,95.27
2022-08-07T03:55:23.763Z,94.29
2022-08-07T03:59:06.670Z,95.14
2022-08-07T04:01:00.334Z,96.10
2022-08-07T04:03:26.938Z,95.85
2022-08-07T04:05:53.531Z,96.00
2022-08-07T04:08:26.102Z,96.53
2022-08-07T04:12:24.667Z,96.07
2022-08-07T04:14:10.138Z,97.00
2022-08-07T04:16:30.870Z,96.24
2022-08-07T04:19:01.533Z,97.05
2022-08-07T04:21:33.380Z,97.52
2022-08-07T04:24:06.022Z,98.59
2022-08-07T04:26:34.158Z,98.17
2022-08-07T04:29:00.746Z,99.22
2022-08-07T04:31:38.735Z,99.17
2022-08-07T04:34:17.346Z,97.89
2022-08-07T04:36:54.021Z,98.97
2022-08-07T04:39:25.760Z,98.72
2022-08-07T04:41:52.580Z,98.01
2022-08-07T04:44:19.307Z,97.24
2022-08-07T04:46:59.639Z,97.64
2022-08-07T04:50:03.684Z,98.21
2022-08-07T04:52:51.415Z,98.25
2022-08-07T04:58:24.305Z,99.00
2022-08-07T04:58:27.489Z,99.09
2022-08-07T05:01:13.596Z,98.98
2022-08-07T05:04:06.406Z,98.70
2022-08-07T05:06:51.776Z,98.90
2022-08-07T05:09:46.997Z,98.25
2022-08-07T05:12:27.044Z,98.77
2022-08-07T05:15:04.832Z,98.74
2022-08-07T05:17:50.860Z,98.54
2022-08-07T05:20:30.446Z,98.54
2022-08-07T05:22:58.318Z,99.04
2022-08-07T05:25:26.268Z,98.90
2022-08-07T05:28:20.213Z,97.93
2022-08-07T05:30:49.783Z,97.71
2022-08-07T05:33:21.109Z,97.90
2022-08-07T05:35:49.791Z,97.75
2022-08-07T05:39:00.982Z,98.32
2022-08-07T05:41:12.078Z,98.15
2022-08-07T05:43:50.022Z,98.43
2022-08-07T05:46:29.525Z,98.59
2022-08-07T05:48:58.162Z,99.55
2022-08-07T05:51:25.839Z,99.85
2022-08-07T05:54:13.413Z,99.67
2022-08-07T05:56:44.703Z,99.88
2022-08-07T05:59:15.586Z,100.00
2022-08-07T06:01:43.120Z,100.00
2022-08-07T06:04:11.747Z,100.00
2022-08-07T06:06:46.153Z,100.00
2022-08-07T06:09:15.428Z,100.00
2022-08-07T06:11:42.257Z,100.00
2022-08-07T06:14:12.148Z,100.00
2022-08-07T06:16:40.754Z,100.00
2022-08-07T06:19:08.543Z,100.00
2022-08-07T06:22:16.133Z,100.00
2022-08-07T06:24:37.615Z,100.00
2022-08-07T06:28:00.007Z,100.00
2022-08-07T06:30:36.073Z,100.00
2022-08-07T06:32:57.804Z,100.00
2022-08-07T06:35:24.365Z,100.00
2022-08-07T06:38:06.293Z,100.00
2022-08-07T06:40:50.472Z,100.00
2022-08-07T06:43:21.621Z,100.00
2022-08-07T06:45:49.549Z,100.00
2022-08-07T06:48:16.336Z,100.00
2022-08-07T06:50:53.250Z,100.00
2022-08-07T06:54:11.703Z,100.00
2022-08-07T06:56:15.506Z,100.00
2022-08-07T07:00:13.438Z,100.00
2022-08-07T07:01:33.282Z,100.00
2022-08-07T07:04:28.122Z,100.00
2022-08-07T07:07:01.203Z,100.00
2022-08-07T07:09:31.370Z,100.00
2022-08-07T07:12:19.712Z,100.00
2022-08-07T07:15:08.631Z,100.00
2022-08-07T07:17:50.664Z,100.00
2022-08-07T07:20:22.369Z,100.00
2022-08-07T07:24:08.776Z,100.00
2022-08-07T07:26:34.001Z,100.00
2022-08-07T07:28:42.370Z,100.00
2022-08-07T07:31:25.544Z,100.00
2022-08-07T07:33:59.644Z,100.00
2022-08-07T07:36:32.492Z,100.00
2022-08-07T07:39:00.900Z,100.00
2022-08-07T07:41:31.037Z,100.00
2022-08-07T07:44:21.655Z,97.17
2022-08-07T07:47:02.253Z,97.98
2022-08-07T07:50:34.816Z,98.57
2022-08-07T07:52:28.515Z,98.79
2022-08-07T07:54:55.929Z,96.67
2022-08-07T07:57:44.041Z,96.80
2022-08-07T08:00:20.921Z,97.03
2022-08-07T08:03:05.898Z,97.05
2022-08-07T08:05:51.063Z,97.94
2022-08-07T08:08:34.309Z,98.33
2022-08-07T08:11:03.757Z,97.95
2022-08-07T08:13:36.724Z,98.00
2022-08-07T08:16:24.873Z,97.19
2022-08-07T08:18:55.079Z,95.48
2022-08-07T08:21:55.950Z,90.28
2022-08-07T08:24:47.902Z,82.64
2022-08-07T08:27:33.428Z,83.00
2022-08-07T08:30:08.958Z,74.41
2022-08-07T08:32:49.072Z,71.05
2022-08-07T08:35:21.563Z,74.51
2022-08-07T08:38:00.882Z,79.15
2022-08-07T08:40:36.501Z,63.95
2022-08-07T08:43:16.190Z,59.18
2022-08-07T08:45:59.372Z,69.84
2022-08-07T08:48:45.824Z,61.83
2022-08-07T08:51:49.825Z,57.79
2022-08-07T08:54:40.238Z,53.85
2022-08-07T08:57:14.320Z,53.10
2022-08-07T09:00:00.149Z,55.73
2022-08-07T09:02:37.815Z,58.39
2022-08-07T09:05:36.951Z,60.86
2022-08-07T09:08:39.187Z,52.63
2022-08-07T09:11:24.390Z,58.67
2022-08-07T09:14:13.483Z,50.40
2022-08-07T09:17:11.722Z,60.68
2022-08-07T09:19:56.609Z,53.69
2022-08-07T09:24:33.365Z,57.13
2022-08-07T09:25:28.006Z,49.02
2022-08-07T09:28:03.936Z,47.26
2022-08-07T09:30:54.814Z,45.73
2022-08-07T09:33:56.997Z,45.16
2022-08-07T09:36:42.980Z,44.94
2022-08-07T09:39:54.353Z,44.66
2022-08-07T09:42:45.624Z,43.29
2022-08-07T09:47:23.554Z,51.17
2022-08-07T09:48:43.948Z,45.13
2022-08-07T09:52:15.822Z,43.02
2022-08-07T09:54:58.110Z,42.33
2022-08-07T09:57:29.890Z,43.91
2022-08-07T10:00:09.349Z,52.21
2022-08-07T10:04:02.900Z,43.66
2022-08-07T10:06:17.255Z,41.04
2022-08-07T10:08:56.337Z,41.40
2022-08-07T10:12:01.861Z,39.79
2022-08-07T10:15:03.115Z,41.56
2022-08-07T10:18:00.857Z,39.36
2022-08-07T10:20:39.350Z,41.86
2022-08-07T10:23:12.593Z,43.73
2022-08-07T10:26:02.282Z,48.14
2022-08-07T10:28:35.411Z,40.67
2022-08-07T10:31:31.495Z,39.22
2022-08-07T10:34:17.837Z,40.85
2022-08-07T10:36:59.755Z,38.68
2022-08-07T10:40:03.239Z,40.42
2022-08-07T10:43:10.029Z,41.30
2022-08-07T10:45:57.577Z,43.20
2022-08-07T10:48:44.317Z,41.01
2022-08-07T10:51:57.169Z,43.19
2022-08-07T10:54:17.394Z,38.96
2022-08-07T10:57:03.055Z,38.83
2022-08-07T10:59:53.162Z,40.34
2022-08-07T11:02:41.414Z,39.58
2022-08-07T11:05:35.691Z,43.81
2022-08-07T11:08:34.487Z,48.17
2022-08-07T11:11:09.636Z,40.26
2022-08-07T11:14:45.852Z,38.19
2022-08-07T11:16:39.331Z,39.85
2022-08-07T11:19:11.924Z,36.94
2022-08-07T11:21:45.109Z,37.30
2022-08-07T11:24:22.272Z,36.68
2022-08-07T11:27:06.505Z,41.06
2022-08-07T11:30:18.077Z,39.69
2022-08-07T11:33:19.482Z,35.63
2022-08-07T11:36:25.441Z,36.87
2022-08-07T11:39:19.713Z,36.59
2022-08-07T11:42:00.323Z,37.69
2022-08-07T11:44:52.283Z,38.73
2022-08-07T11:47:56.587Z,34.84
2022-08-07T11:50:57.443Z,34.34
2022-08-07T11:54:01.786Z,39.03
2022-08-07T11:57:01.625Z,40.62
2022-08-07T12:00:12.269Z,39.82
2022-08-07T12:02:52.744Z,42.44
2022-08-07T12:05:47.149Z,38.88
2022-08-07T12:08:38.403Z,40.94
2022-08-07T12:11:21.562Z,42.47
2022-08-07T12:14:08.416Z,45.54
2022-08-07T12:16:41.947Z,44.14
2022-08-07T12:19:35.320Z,41.08
2022-08-07T12:22:39.215Z,42.44
2022-08-07T12:26:05.495Z,44.95
2022-08-07T12:28:55.986Z,44.71
2022-08-07T12:32:01.972Z,45.87
2022-08-07T12:34:36.365Z,42.03
2022-08-07T12:37:08.768Z,40.52
2022-08-07T12:39:51.083Z,42.51
2022-08-07T12:42:27.511Z,44.78
2022-08-07T12:44:56.847Z,44.92
2022-08-07T12:47:37.349Z,43.95
2022-08-07T12:50:34.017Z,46.66
2022-08-07T12:53:17.671Z,51.53
2022-08-07T12:56:10.150Z,53.34
2022-08-07T12:58:39.909Z,54.88
2022-08-07T13:01:18.423Z,55.66
2022-08-07T13:04:04.546Z,54.90
2022-08-07T13:07:03.274Z,53.33
2022-08-07T13:10:37.161Z,50.20
2022-08-07T13:13:02.636Z,46.70
2022-08-07T13:15:58.773Z,41.61
2022-08-07T13:18:39.819Z,42.93
2022-08-07T13:21:35.066Z,37.21
2022-08-07T13:24:16.335Z,37.54
2022-08-07T13:27:20.482Z,36.93
2022-08-07T13:29:58.161Z,36.23
2022-08-07T13:32:53.701Z,41.49
2022-08-07T13:36:00.733Z,37.17
2022-08-07T13:38:33.340Z,46.28
2022-08-07T13:41:27.983Z,40.55
2022-08-07T13:43:57.147Z,40.60
2022-08-07T13:46:33.053Z,42.49
2022-08-07T13:49:02.031Z,39.98
2022-08-07T13:52:22.370Z,40.37
2022-08-07T13:54:23.509Z,38.58
2022-08-07T13:56:55.868Z,37.30
2022-08-07T13:59:32.042Z,37.49
2022-08-07T14:02:10.450Z,34.23
2022-08-07T14:04:47.467Z,36.39
2022-08-07T14:07:18.898Z,35.91
2022-08-07T14:10:17.347Z,35.27
2022-08-07T14:12:49.313Z,37.33
2022-08-07T14:15:34.828Z,37.43
2022-08-07T14:18:24.214Z,34.62
2022-08-07T14:21:07.951Z,35.96
2022-08-07T14:24:00.316Z,34.86
2022-08-07T14:26:30.613Z,38.64
2022-08-07T14:29:08.466Z,40.97
2022-08-07T14:31:42.486Z,36.86
2022-08-07T14:34:12.079Z,42.41
2022-08-07T14:36:56.069Z,44.39
2022-08-07T14:40:15.608Z,45.72
2022-08-07T14:42:18.744Z,49.50
2022-08-07T14:44:51.863Z,47.67
2022-08-07T14:47:19.251Z,36.47
2022-08-07T14:49:58.153Z,35.09
2022-08-07T14:52:28.848Z,37.55
2022-08-07T14:54:58.500Z,34.41
2022-08-07T14:57:28.968Z,38.40
2022-08-07T15:00:20.777Z,39.01
2022-08-07T15:02:59.000Z,38.56
2022-08-07T15:05:27.453Z,41.81
2022-08-07T15:07:58.386Z,41.12
2022-08-07T15:10:29.825Z,40.37
2022-08-07T15:13:01.198Z,35.92
2022-08-07T15:15:40.793Z,36.37
2022-08-07T15:18:28.844Z,33.05
2022-08-07T15:21:08.235Z,38.20
2022-08-07T15:25:15.650Z,41.13
2022-08-07T15:26:51.912Z,42.52
2022-08-07T15:30:06.419Z,41.35
2022-08-07T15:32:12.545Z,42.51
2022-08-07T15:35:06.591Z,33.92
2022-08-07T15:38:04.730Z,40.80
2022-08-07T15:40:34.722Z,41.26
2022-08-07T15:43:53.572Z,42.02
2022-08-07T15:49:14.530Z,42.75
2022-08-07T15:54:33.857Z,35.81
2022-08-07T15:57:02.993Z,32.59
2022-08-07T15:59:39.557Z,35.48
2022-08-07T16:02:15.361Z,40.81
2022-08-07T16:04:42.706Z,45.02
2022-08-07T16:08:28.921Z,38.47
2022-08-07T16:10:21.181Z,40.00
2022-08-07T16:13:18.108Z,40.12
2022-08-07T16:16:43.780Z,37.22
2022-08-07T16:19:11.793Z,36.00
2022-08-07T16:22:03.545Z,36.27
2022-08-07T16:24:52.718Z,39.19
2022-08-07T16:27:40.337Z,41.44
2022-08-07T16:30:30.599Z,36.79
2022-08-07T16:34:02.282Z,34.70
2022-08-07T16:36:20.666Z,34.33
2022-08-07T16:39:16.783Z,37.67
2022-08-07T16:42:23.829Z,41.89
2022-08-07T16:45:15.577Z,42.23
2022-08-07T16:48:13.471Z,45.30
2022-08-07T16:51:20.921Z,46.13
2022-08-07T16:54:02.198Z,45.23
2022-08-07T16:56:53.561Z,45.25
2022-08-07T16:59:46.575Z,47.08
2022-08-07T17:02:52.186Z,47.44
2022-08-07T17:06:28.829Z,43.56
2022-08-07T17:09:09.880Z,44.72
2022-08-07T17:12:04.456Z,46.29
2022-08-07T17:14:36.544Z,46.67
2022-08-07T17:17:09.789Z,48.71
2022-08-07T17:20:02.397Z,48.72
2022-08-07T17:22:48.549Z,50.30
2022-08-07T17:25:19.489Z,49.77
2022-08-07T17:28:06.563Z,50.46
2022-08-07T17:30:58.061Z,50.75
2022-08-07T17:34:09.396Z,51.01
2022-08-07T17:36:20.511Z,51.21
2022-08-07T17:38:54.583Z,51.31
2022-08-07T17:42:04.682Z,51.07
2022-08-07T17:44:50.167Z,51.83
2022-08-07T17:47:54.098Z,51.09
2022-08-07T17:50:30.566Z,50.66
2022-08-07T17:53:01.003Z,50.88
2022-08-07T17:56:01.093Z,52.37
2022-08-07T17:58:57.416Z,50.32
2022-08-07T18:01:58.075Z,52.80
2022-08-07T18:04:35.119Z,48.39
2022-08-07T18:07:20.480Z,50.31
2022-08-07T18:10:07.516Z,50.59
2022-08-07T18:12:55.479Z,51.22
2022-08-07T18:15:32.592Z,52.21
2022-08-07T18:18:46.718Z,53.57
2022-08-07T18:21:38.248Z,54.58
2022-08-07T18:24:07.065Z,54.75
2022-08-07T18:26:48.698Z,55.24
2022-08-07T18:30:04.692Z,55.51
2022-08-07T18:32:20.041Z,56.26
2022-08-07T18:35:10.454Z,54.82
2022-08-07T18:38:57.834Z,53.82
2022-08-07T18:40:59.801Z,53.17
2022-08-07T18:43:49.703Z,54.01
2022-08-07T18:46:25.948Z,56.66
2022-08-07T18:50:31.383Z,56.69
2022-08-07T18:52:53.064Z,58.90
2022-08-07T18:55:43.284Z,58.80
2022-08-07T18:59:01.104Z,58.90
2022-08-07T19:02:32.545Z,58.59
2022-08-07T19:04:54.812Z,58.97
2022-08-07T19:08:05.689Z,58.99
2022-08-07T19:10:49.500Z,59.08
2022-08-07T19:13:21.999Z,59.03
2022-08-07T19:17:00.832Z,59.46
2022-08-07T19:19:28.036Z,60.11
2022-08-07T19:22:05.184Z,60.12
2022-08-07T19:24:50.103Z,60.11
2022-08-07T19:28:57.422Z,60.98
2022-08-07T19:31:03.118Z,61.34
2022-08-07T19:33:10.369Z,62.10
2022-08-07T19:35:43.924Z,61.39
2022-08-07T19:38:15.921Z,61.02
2022-08-07T19:40:47.475Z,60.88
2022-08-07T19:43:45.047Z,60.86
2022-08-07T19:46:11.782Z,60.68
2022-08-07T19:48:42.271Z,61.54
2022-08-07T19:51:19.192Z,61.93
2022-08-07T19:54:33.901Z,61.95
2022-08-07T19:58:00.427Z,62.11
2022-08-07T19:59:41.093Z,61.99
2022-08-07T20:02:15.486Z,62.33
2022-08-07T20:04:49.420Z,63.01
2022-08-07T20:07:23.726Z,63.26
2022-08-07T20:10:37.234Z,63.39
2022-08-07T20:12:53.070Z,63.06
2022-08-07T20:15:33.025Z,62.94
2022-08-07T20:18:06.203Z,64.25
2022-08-07T20:20:41.791Z,64.55
2022-08-07T20:23:22.784Z,64.60
2022-08-07T20:26:04.471Z,64.57
2022-08-07T20:28:39.125Z,64.74
2022-08-07T20:31:21.263Z,64.83
2022-08-07T20:33:57.498Z,65.31
2022-08-07T20:36:26.191Z,65.34
2022-08-07T20:39:00.471Z,65.27
2022-08-07T20:41:47.305Z,64.45
2022-08-07T20:44:15.493Z,65.14
2022-08-07T20:46:45.475Z,65.90
2022-08-07T20:50:01.251Z,66.61
2022-08-07T20:52:14.051Z,66.84
2022-08-07T20:54:53.415Z,66.44
2022-08-07T20:57:28.807Z,65.57
2022-08-07T21:00:07.937Z,65.27
2022-08-07T21:02:58.522Z,65.03
2022-08-07T21:05:54.529Z,64.93
2022-08-07T21:08:28.754Z,64.58
2022-08-07T21:11:10.738Z,64.33
2022-08-07T21:13:57.595Z,64.04
2022-08-07T21:16:29.181Z,63.91
2022-08-07T21:18:57.672Z,63.36
2022-08-07T21:21:27.209Z,63.34
2022-08-07T21:24:20.210Z,63.11
2022-08-07T21:27:00.136Z,62.66
2022-08-07T21:29:37.409Z,62.64
2022-08-07T21:32:48.403Z,62.33
2022-08-07T21:35:02.646Z,61.99
2022-08-07T21:37:58.039Z,61.67
2022-08-07T21:40:44.005Z,61.71
2022-08-07T21:43:17.826Z,61.76
2022-08-07T21:46:08.814Z,62.26
2022-08-07T21:48:58.699Z,64.37
2022-08-07T21:51:28.164Z,64.75
2022-08-07T21:54:05.367Z,65.63
2022-08-07T21:56:49.142Z,64.76
2022-08-07T22:00:04.546Z,65.13
2022-08-07T22:02:55.093Z,65.16
2022-08-07T22:05:45.895Z,63.79
2022-08-07T22:08:12.338Z,63.89
2022-08-07T22:10:42.355Z,64.73
2022-08-07T22:13:13.798Z,65.12
2022-08-07T22:16:35.807Z,64.63
2022-08-07T22:18:59.330Z,64.71
2022-08-07T22:22:05.198Z,64.64
2022-08-07T22:24:54.637Z,65.59
2022-08-07T22:28:08.104Z,66.02
2022-08-07T22:30:26.574Z,65.70
2022-08-07T22:33:03.659Z,66.24
2022-08-07T22:35:58.373Z,67.05
2022-08-07T22:38:47.870Z,66.26
2022-08-07T22:41:19.942Z,66.20
2022-08-07T22:43:56.358Z,65.87
2022-08-07T22:47:06.142Z,66.01
2022-08-07T22:49:54.957Z,66.51
2022-08-07T22:52:37.544Z,65.98
2022-08-07T22:55:30.053Z,66.45
2022-08-07T22:58:28.192Z,68.60
2022-08-07T23:01:10.753Z,67.25
2022-08-07T23:03:58.045Z,67.44
2022-08-07T23:06:44.077Z,67.72
2022-08-07T23:10:04.904Z,67.51
2022-08-07T23:12:21.071Z,67.35
2022-08-07T23:16:07.028Z,68.08
2022-08-07T23:19:11.391Z,67.92
2022-08-07T23:22:08.622Z,67.93
2022-08-07T23:24:45.540Z,67.00
2022-08-07T23:28:20.538Z,64.87
2022-08-07T23:31:06.730Z,65.67
2022-08-07T23:34:22.602Z,68.48
2022-08-07T23:37:20.227Z,70.08
2022-08-07T23:40:14.936Z,69.72
2022-08-07T23:42:59.910Z,69.19
2022-08-07T23:46:02.213Z,69.34
2022-08-07T23:48:58.700Z,69.80
2022-08-07T23:52:58.386Z,66.72
2022-08-07T23:54:44.263Z,67.38
2022-08-07T23:57:24.310Z,68.55
